sensor_id;sensor_type;location;lat;lon;timestamp;pressure;altitude;pressure_sealevel;temperature
75658;BMP280;64255;49.892;17.884;2023-02-01T00:00:34;98269.28;;;3.30
75658;BMP280;64255;49.892;17.884;2023-02-01T00:03:22;98272.38;;;3.28
75658;BMP280;64255;49.892;17.884;2023-02-01T00:05:59;98273.41;;;3.14
75658;BMP280;64255;49.892;17.884;2023-02-01T00:08:27;98254.75;;;3.05
75658;BMP280;64255;49.892;17.884;2023-02-01T00:11:10;98260.69;;;3.55
75658;BMP280;64255;49.892;17.884;2023-02-01T00:13:41;98259.13;;;3.28
75658;BMP280;64255;49.892;17.884;2023-02-01T00:16:14;98267.69;;;3.32
75658;BMP280;64255;49.892;17.884;2023-02-01T00:18:44;98260.81;;;3.51
75658;BMP280;64255;49.892;17.884;2023-02-01T00:21:16;98265.38;;;3.51
75658;BMP280;64255;49.892;17.884;2023-02-01T00:23:45;98260.81;;;3.51
75658;BMP280;64255;49.892;17.884;2023-02-01T00:29:04;98272.16;;;3.52
75658;BMP280;64255;49.892;17.884;2023-02-01T00:31:32;98277.69;;;3.41
75658;BMP280;64255;49.892;17.884;2023-02-01T00:33:59;98289.63;;;3.33
75658;BMP280;64255;49.892;17.884;2023-02-01T00:36:26;98267.09;;;3.57
75658;BMP280;64255;49.892;17.884;2023-02-01T00:38:53;98269.41;;;3.55
75658;BMP280;64255;49.892;17.884;2023-02-01T00:41:21;98261.00;;;3.44
75658;BMP280;64255;49.892;17.884;2023-02-01T00:43:51;98262.59;;;3.41
75658;BMP280;64255;49.892;17.884;2023-02-01T00:46:19;98267.13;;;3.41
75658;BMP280;64255;49.892;17.884;2023-02-01T00:48:48;98260.91;;;3.48
75658;BMP280;64255;49.892;17.884;2023-02-01T00:51:22;98266.28;;;3.44
75658;BMP280;64255;49.892;17.884;2023-02-01T00:53:51;98271.00;;;3.36
75658;BMP280;64255;49.892;17.884;2023-02-01T00:56:19;98277.69;;;3.41
75658;BMP280;64255;49.892;17.884;2023-02-01T00:58:46;98278.84;;;3.40
75658;BMP280;64255;49.892;17.884;2023-02-01T01:01:20;98289.63;;;3.33
75658;BMP280;64255;49.892;17.884;2023-02-01T01:03:52;98289.16;;;3.21
75658;BMP280;64255;49.892;17.884;2023-02-01T01:06:24;98292.91;;;3.04
75658;BMP280;64255;49.892;17.884;2023-02-01T01:08:54;98297.31;;;2.94
75658;BMP280;64255;49.892;17.884;2023-02-01T01:11:27;98292.44;;;2.92
75658;BMP280;64255;49.892;17.884;2023-02-01T01:13:57;98296.53;;;2.77
75658;BMP280;64255;49.892;17.884;2023-02-01T01:16:27;98306.81;;;2.55
75658;BMP280;64255;49.892;17.884;2023-02-01T01:18:56;98302.16;;;2.79
75658;BMP280;64255;49.892;17.884;2023-02-01T01:21:24;98294.50;;;3.01
75658;BMP280;64255;49.892;17.884;2023-02-01T01:23:52;98291.44;;;3.03
75658;BMP280;64255;49.892;17.884;2023-02-01T01:26:23;98286.66;;;2.98
75658;BMP280;64255;49.892;17.884;2023-02-01T01:28:54;98282.63;;;2.93
75658;BMP280;64255;49.892;17.884;2023-02-01T01:31:22;98271.41;;;3.02
75658;BMP280;64255;49.892;17.884;2023-02-01T01:33:53;98276.56;;;2.92
75658;BMP280;64255;49.892;17.884;2023-02-01T01:36:21;98270.03;;;2.97
75658;BMP280;64255;49.892;17.884;2023-02-01T01:38:49;98266.00;;;2.92
75658;BMP280;64255;49.892;17.884;2023-02-01T01:41:28;98255.66;;;2.98
75658;BMP280;64255;49.892;17.884;2023-02-01T01:43:57;98256.72;;;2.84
75658;BMP280;64255;49.892;17.884;2023-02-01T01:46:32;98250.81;;;2.97
75658;BMP280;64255;49.892;17.884;2023-02-01T01:49:14;98246.13;;;3.01
75658;BMP280;64255;49.892;17.884;2023-02-01T01:52:04;98248.28;;;2.89
75658;BMP280;64255;49.892;17.884;2023-02-01T01:54:40;98249.34;;;2.75
75658;BMP280;64255;49.892;17.884;2023-02-01T01:57:18;98248.03;;;2.84
75658;BMP280;64255;49.892;17.884;2023-02-01T01:59:55;98258.28;;;2.65
75658;BMP280;64255;49.892;17.884;2023-02-01T02:02:24;98255.28;;;2.46
75658;BMP280;64255;49.892;17.884;2023-02-01T02:04:52;98248.97;;;2.40
75658;BMP280;64255;49.892;17.884;2023-02-01T02:07:29;98261.56;;;2.53
75658;BMP280;64255;49.892;17.884;2023-02-01T02:09:57;98269.06;;;2.17
75658;BMP280;64255;49.892;17.884;2023-02-01T02:12:25;98263.75;;;2.38
75658;BMP280;64255;49.892;17.884;2023-02-01T02:14:52;98276.22;;;2.17
75658;BMP280;64255;49.892;17.884;2023-02-01T02:17:50;98275.34;;;2.04
75658;BMP280;64255;49.892;17.884;2023-02-01T02:21:12;98288.31;;;1.94
75658;BMP280;64255;49.892;17.884;2023-02-01T02:36:13;98301.06;;;1.99
75658;BMP280;64255;49.892;17.884;2023-02-01T02:38:58;98291.25;;;2.00
75658;BMP280;64255;49.892;17.884;2023-02-01T02:46:50;98282.81;;;2.66
75658;BMP280;64255;49.892;17.884;2023-02-01T02:52:19;98293.41;;;2.82
75658;BMP280;64255;49.892;17.884;2023-02-01T02:54:50;98296.19;;;2.58
75658;BMP280;64255;49.892;17.884;2023-02-01T02:57:32;98310.88;;;2.59
75658;BMP280;64255;49.892;17.884;2023-02-01T03:00:11;98307.72;;;2.48
75658;BMP280;64255;49.892;17.884;2023-02-01T03:02:39;98298.28;;;2.47
75658;BMP280;64255;49.892;17.884;2023-02-01T03:05:07;98293.78;;;2.27
75658;BMP280;64255;49.892;17.884;2023-02-01T03:08:04;98295.28;;;2.65
75658;BMP280;64255;49.892;17.884;2023-02-01T03:21:19;98290.75;;;2.66
75658;BMP280;64255;49.892;17.884;2023-02-01T03:23:51;98282.53;;;2.60
75658;BMP280;64255;49.892;17.884;2023-02-01T03:26:23;98293.38;;;2.66
75658;BMP280;64255;49.892;17.884;2023-02-01T03:29:07;98297.75;;;2.56
75658;BMP280;64255;49.892;17.884;2023-02-01T03:31:35;98293.19;;;2.56
75658;BMP280;64255;49.892;17.884;2023-02-01T03:34:04;98297.97;;;2.25
75658;BMP280;64255;49.892;17.884;2023-02-01T03:36:44;98306.28;;;2.43
75658;BMP280;64255;49.892;17.884;2023-02-01T03:42:14;98308.41;;;2.32
75658;BMP280;64255;49.892;17.884;2023-02-01T03:45:10;98299.78;;;2.48
75658;BMP280;64255;49.892;17.884;2023-02-01T03:47:44;98295.31;;;2.45
75658;BMP280;64255;49.892;17.884;2023-02-01T03:50:18;98296.59;;;2.37
75658;BMP280;64255;49.892;17.884;2023-02-01T03:55:30;98294.94;;;2.26
75658;BMP280;64255;49.892;17.884;2023-02-01T03:58:18;98305.78;;;2.32
75658;BMP280;64255;49.892;17.884;2023-02-01T04:00:55;98300.38;;;2.36
75658;BMP280;64255;49.892;17.884;2023-02-01T04:03:26;98306.03;;;2.17
75658;BMP280;64255;49.892;17.884;2023-02-01T04:05:54;98302.75;;;1.90
75658;BMP280;64255;49.892;17.884;2023-02-01T04:08:23;98299.06;;;2.27
75658;BMP280;64255;49.892;17.884;2023-02-01T04:10:51;98300.34;;;2.19
75658;BMP280;64255;49.892;17.884;2023-02-01T04:13:24;98300.19;;;2.06
75658;BMP280;64255;49.892;17.884;2023-02-01T04:15:52;98303.66;;;2.23
75658;BMP280;64255;49.892;17.884;2023-02-01T04:18:19;98308.81;;;2.30
75658;BMP280;64255;49.892;17.884;2023-02-01T04:20:45;98302.84;;;2.26
75658;BMP280;64255;49.892;17.884;2023-02-01T04:23:13;98305.16;;;2.24
75658;BMP280;64255;49.892;17.884;2023-02-01T04:25:40;98309.81;;;2.37
75658;BMP280;64255;49.892;17.884;2023-02-01T04:28:08;98309.94;;;2.49
75658;BMP280;64255;49.892;17.884;2023-02-01T04:30:35;98306.09;;;2.34
75658;BMP280;64255;49.892;17.884;2023-02-01T04:33:03;98312.81;;;2.19
75658;BMP280;64255;49.892;17.884;2023-02-01T04:35:30;98308.56;;;2.01
75658;BMP280;64255;49.892;17.884;2023-02-01T04:37:59;98300.19;;;1.86
75658;BMP280;64255;49.892;17.884;2023-02-01T04:40:26;98304.72;;;1.85
75658;BMP280;64255;49.892;17.884;2023-02-01T04:42:54;98300.03;;;1.73
75658;BMP280;64255;49.892;17.884;2023-02-01T04:45:21;98294.34;;;1.75
75658;BMP280;64255;49.892;17.884;2023-02-01T04:47:49;98294.59;;;2.24
75658;BMP280;64255;49.892;17.884;2023-02-01T04:50:16;98301.06;;;1.99
75658;BMP280;64255;49.892;17.884;2023-02-01T04:52:43;98294.44;;;1.91
75658;BMP280;64255;49.892;17.884;2023-02-01T04:55:11;98300.25;;;2.03
75658;BMP280;64255;49.892;17.884;2023-02-01T04:57:39;98299.13;;;2.04
75658;BMP280;64255;49.892;17.884;2023-02-01T05:00:10;98293.34;;;2.09
75658;BMP280;64255;49.892;17.884;2023-02-01T05:02:37;98289.69;;;2.03
75658;BMP280;64255;49.892;17.884;2023-02-01T05:05:05;98294.22;;;2.02
75658;BMP280;64255;49.892;17.884;2023-02-01T05:07:33;98296.41;;;1.87
75658;BMP280;64255;49.892;17.884;2023-02-01T05:09:59;98298.69;;;1.85
75658;BMP280;64255;49.892;17.884;2023-02-01T05:12:26;98303.63;;;1.83
75658;BMP280;64255;49.892;17.884;2023-02-01T05:14:53;98303.34;;;1.77
75658;BMP280;64255;49.892;17.884;2023-02-01T05:17:21;98296.84;;;1.82
75658;BMP280;64255;49.892;17.884;2023-02-01T05:19:48;98299.91;;;2.00
75658;BMP280;64255;49.892;17.884;2023-02-01T05:22:15;98308.75;;;2.14
75658;BMP280;64255;49.892;17.884;2023-02-01T05:24:43;98308.81;;;2.30
75658;BMP280;64255;49.892;17.884;2023-02-01T05:27:10;98296.09;;;2.42
75658;BMP280;64255;49.892;17.884;2023-02-01T05:29:37;98293.41;;;2.45
75658;BMP280;64255;49.892;17.884;2023-02-01T05:32:04;98293.38;;;2.29
75658;BMP280;64255;49.892;17.884;2023-02-01T05:34:31;98289.91;;;2.12
75658;BMP280;64255;49.892;17.884;2023-02-01T05:36:59;98289.81;;;1.95
75658;BMP280;64255;49.892;17.884;2023-02-01T05:39:26;98286.19;;;2.29
75658;BMP280;64255;49.892;17.884;2023-02-01T05:41:53;98288.69;;;2.16
75658;BMP280;64255;49.892;17.884;2023-02-01T05:44:20;98288.56;;;2.04
75658;BMP280;64255;49.892;17.884;2023-02-01T05:46:48;98287.91;;;2.36
75658;BMP280;64255;49.892;17.884;2023-02-01T05:49:15;98293.16;;;2.40
75658;BMP280;64255;49.892;17.884;2023-02-01T05:51:42;98297.63;;;2.03
75658;BMP280;64255;49.892;17.884;2023-02-01T05:54:09;98290.47;;;2.23
75658;BMP280;64255;49.892;17.884;2023-02-01T05:56:36;98289.44;;;1.97
75658;BMP280;64255;49.892;17.884;2023-02-01T05:59:03;98275.13;;;2.14
75658;BMP280;64255;49.892;17.884;2023-02-01T06:01:31;98274.72;;;2.36
75658;BMP280;64255;49.892;17.884;2023-02-01T06:03:58;98262.75;;;2.11
75658;BMP280;64255;49.892;17.884;2023-02-01T06:06:25;98285.63;;;2.38
75658;BMP280;64255;49.892;17.884;2023-02-01T06:08:53;98276.19;;;2.37
75658;BMP280;64255;49.892;17.884;2023-02-01T06:11:20;98272.50;;;2.14
75658;BMP280;64255;49.892;17.884;2023-02-01T06:13:47;98278.66;;;2.28
75658;BMP280;64255;49.892;17.884;2023-02-01T06:16:14;98270.78;;;2.64
75658;BMP280;64255;49.892;17.884;2023-02-01T06:18:42;98269.00;;;2.58
75658;BMP280;64255;49.892;17.884;2023-02-01T06:21:09;98271.06;;;2.50
75658;BMP280;64255;49.892;17.884;2023-02-01T06:23:36;98273.75;;;2.83
75658;BMP280;64255;49.892;17.884;2023-02-01T06:26:06;98266.16;;;2.85
75658;BMP280;64255;49.892;17.884;2023-02-01T06:28:34;98260.81;;;2.69
75658;BMP280;64255;49.892;17.884;2023-02-01T06:31:06;98266.00;;;2.92
75658;BMP280;64255;49.892;17.884;2023-02-01T06:33:34;98266.38;;;2.74
75658;BMP280;64255;49.892;17.884;2023-02-01T06:36:06;98268.88;;;2.82
75658;BMP280;64255;49.892;17.884;2023-02-01T06:38:34;98271.38;;;2.89
75658;BMP280;64255;49.892;17.884;2023-02-01T06:41:03;98276.09;;;2.98
75658;BMP280;64255;49.892;17.884;2023-02-01T06:43:30;98274.25;;;2.94
75658;BMP280;64255;49.892;17.884;2023-02-01T06:46:06;98277.13;;;2.84
75658;BMP280;64255;49.892;17.884;2023-02-01T06:48:34;98273.75;;;2.83
75658;BMP280;64255;49.892;17.884;2023-02-01T06:51:02;98277.97;;;2.80
75658;BMP280;64255;49.892;17.884;2023-02-01T06:53:29;98271.53;;;2.82
75658;BMP280;64255;49.892;17.884;2023-02-01T06:56:00;98282.84;;;2.82
75658;BMP280;64255;49.892;17.884;2023-02-01T06:58:31;98288.59;;;2.77
75658;BMP280;64255;49.892;17.884;2023-02-01T07:01:05;98280.66;;;2.77
75658;BMP280;64255;49.892;17.884;2023-02-01T07:03:33;98283.56;;;2.83
75658;BMP280;64255;49.892;17.884;2023-02-01T07:06:00;98280.44;;;2.88
75658;BMP280;64255;49.892;17.884;2023-02-01T07:08:33;98263.78;;;2.91
75658;BMP280;64255;49.892;17.884;2023-02-01T07:11:06;98265.50;;;2.98
75658;BMP280;64255;49.892;17.884;2023-02-01T07:13:35;98256.56;;;3.08
75658;BMP280;64255;49.892;17.884;2023-02-01T07:16:05;98262.53;;;3.12
75658;BMP280;64255;49.892;17.884;2023-02-01T07:18:33;98254.41;;;3.19
75658;BMP280;64255;49.892;17.884;2023-02-01T07:21:01;98259.63;;;3.23
75658;BMP280;64255;49.892;17.884;2023-02-01T07:23:28;98256.03;;;3.30
75658;BMP280;64255;49.892;17.884;2023-02-01T07:25:58;98247.78;;;3.27
75658;BMP280;64255;49.892;17.884;2023-02-01T07:28:30;98244.88;;;3.38
75658;BMP280;64255;49.892;17.884;2023-02-01T07:31:04;98239.81;;;3.44
75658;BMP280;64255;49.892;17.884;2023-02-01T07:33:32;98240.00;;;3.37
75658;BMP280;64255;49.892;17.884;2023-02-01T07:36:04;98254.03;;;3.50
75658;BMP280;64255;49.892;17.884;2023-02-01T07:38:32;98246.09;;;3.50
75658;BMP280;64255;49.892;17.884;2023-02-01T07:41:02;98254.69;;;3.54
75658;BMP280;64255;49.892;17.884;2023-02-01T07:43:31;98247.72;;;3.61
75658;BMP280;64255;49.892;17.884;2023-02-01T07:46:00;98260.63;;;3.58
75658;BMP280;64255;49.892;17.884;2023-02-01T07:48:27;98262.59;;;3.41
75658;BMP280;64255;49.892;17.884;2023-02-01T07:51:08;98263.81;;;3.53
75658;BMP280;64255;49.892;17.884;2023-02-01T07:53:36;98253.66;;;3.65
75658;BMP280;64255;49.892;17.884;2023-02-01T07:56:13;98258.31;;;3.61
75658;BMP280;64255;49.892;17.884;2023-02-01T07:58:41;98249.38;;;3.71
75658;BMP280;64255;49.892;17.884;2023-02-01T08:01:18;98242.06;;;3.75
75658;BMP280;64255;49.892;17.884;2023-02-01T08:03:56;98241.00;;;3.85
75658;BMP280;64255;49.892;17.884;2023-02-01T08:06:24;98245.97;;;3.70
75658;BMP280;64255;49.892;17.884;2023-02-01T08:08:52;98249.94;;;3.79
75658;BMP280;64255;49.892;17.884;2023-02-01T08:11:22;98238.69;;;3.87
75658;BMP280;64255;49.892;17.884;2023-02-01T08:13:51;98243.66;;;3.85
75658;BMP280;64255;49.892;17.884;2023-02-01T08:16:21;98244.38;;;3.73
75658;BMP280;64255;49.892;17.884;2023-02-01T08:18:49;98238.34;;;3.85
75658;BMP280;64255;49.892;17.884;2023-02-01T08:21:24;98254.69;;;3.84
75658;BMP280;64255;49.892;17.884;2023-02-01T08:23:52;98246.31;;;3.85
75658;BMP280;64255;49.892;17.884;2023-02-01T08:26:25;98269.19;;;3.79
75658;BMP280;64255;49.892;17.884;2023-02-01T08:28:56;98266.75;;;3.85
75658;BMP280;64255;49.892;17.884;2023-02-01T08:31:27;98264.09;;;3.72
75658;BMP280;64255;49.892;17.884;2023-02-01T08:33:59;98266.22;;;3.77
75658;BMP280;64255;49.892;17.884;2023-02-01T08:36:29;98267.03;;;3.74
75658;BMP280;64255;49.892;17.884;2023-02-01T08:38:57;98265.25;;;3.71
75658;BMP280;64255;49.892;17.884;2023-02-01T08:41:28;98243.53;;;3.76
75658;BMP280;64255;49.892;17.884;2023-02-01T08:43:56;98254.13;;;3.76
75658;BMP280;64255;49.892;17.884;2023-02-01T08:46:24;98249.28;;;3.87
75658;BMP280;64255;49.892;17.884;2023-02-01T08:48:52;98248.44;;;3.90
75658;BMP280;64255;49.892;17.884;2023-02-01T08:51:22;98244.66;;;3.92
75658;BMP280;64255;49.892;17.884;2023-02-01T08:53:50;98247.19;;;3.95
75658;BMP280;64255;49.892;17.884;2023-02-01T08:56:18;98255.81;;;3.99
75658;BMP280;64255;49.892;17.884;2023-02-01T08:58:46;98246.56;;;4.04
75658;BMP280;64255;49.892;17.884;2023-02-01T09:01:16;98252.00;;;4.00
75658;BMP280;64255;49.892;17.884;2023-02-01T09:03:44;98244.03;;;4.13
75658;BMP280;64255;49.892;17.884;2023-02-01T09:06:14;98244.03;;;4.13
75658;BMP280;64255;49.892;17.884;2023-02-01T09:08:43;98242.88;;;4.14
75658;BMP280;64255;49.892;17.884;2023-02-01T09:11:15;98239.41;;;4.17
75658;BMP280;64255;49.892;17.884;2023-02-01T09:13:43;98242.31;;;4.06
75658;BMP280;64255;49.892;17.884;2023-02-01T09:16:13;98245.53;;;4.14
75658;BMP280;64255;49.892;17.884;2023-02-01T09:18:41;98245.31;;;4.21
75658;BMP280;64255;49.892;17.884;2023-02-01T09:21:08;98261.97;;;4.22
75658;BMP280;64255;49.892;17.884;2023-02-01T09:23:35;98251.25;;;4.26
75658;BMP280;64255;49.892;17.884;2023-02-01T09:26:04;98251.25;;;4.26
75658;BMP280;64255;49.892;17.884;2023-02-01T09:28:32;98250.44;;;4.29
75658;BMP280;64255;49.892;17.884;2023-02-01T09:31:01;98244.38;;;4.28
75658;BMP280;64255;49.892;17.884;2023-02-01T09:33:28;98243.31;;;4.26
75658;BMP280;64255;49.892;17.884;2023-02-01T09:36:02;98251.38;;;4.35
75658;BMP280;64255;49.892;17.884;2023-02-01T09:38:31;98252.88;;;4.36
75658;BMP280;64255;49.892;17.884;2023-02-01T09:40:59;98247.88;;;4.38
75658;BMP280;64255;49.892;17.884;2023-02-01T09:44:18;98240.03;;;4.34
75658;BMP280;64255;49.892;17.884;2023-02-01T09:48:57;98229.44;;;4.34
75658;BMP280;64255;49.892;17.884;2023-02-01T09:51:38;98216.91;;;4.35
75658;BMP280;64255;49.892;17.884;2023-02-01T09:54:22;98225.19;;;4.37
75658;BMP280;64255;49.892;17.884;2023-02-01T09:57:04;98222.16;;;4.38
75658;BMP280;64255;49.892;17.884;2023-02-01T10:00:27;98213.88;;;4.36
75658;BMP280;64255;49.892;17.884;2023-02-01T10:02:55;98213.75;;;4.40
75658;BMP280;64255;49.892;17.884;2023-02-01T10:12:00;98212.78;;;4.47
75658;BMP280;64255;49.892;17.884;2023-02-01T10:16:52;98209.38;;;4.46
75658;BMP280;64255;49.892;17.884;2023-02-01T10:22:47;98209.31;;;4.50
75658;BMP280;64255;49.892;17.884;2023-02-01T10:25:54;98202.72;;;4.54
75658;BMP280;64255;49.892;17.884;2023-02-01T10:28:24;98200.16;;;4.51
75658;BMP280;64255;49.892;17.884;2023-02-01T10:30:57;98197.75;;;4.44
75658;BMP280;64255;49.892;17.884;2023-02-01T10:33:35;98186.16;;;4.50
75658;BMP280;64255;49.892;17.884;2023-02-01T10:36:46;98199.31;;;4.54
75658;BMP280;64255;49.892;17.884;2023-02-01T10:39:16;98192.97;;;4.51
75658;BMP280;64255;49.892;17.884;2023-02-01T10:41:43;98194.84;;;4.51
75658;BMP280;64255;49.892;17.884;2023-02-01T10:44:17;98190.84;;;4.59
75658;BMP280;64255;49.892;17.884;2023-02-01T10:46:46;98189.88;;;4.53
75658;BMP280;64255;49.892;17.884;2023-02-01T10:52:45;98184.34;;;4.73
75658;BMP280;64255;49.892;17.884;2023-02-01T10:58:18;98169.06;;;4.64
75658;BMP280;64255;49.892;17.884;2023-02-01T11:01:07;98175.53;;;4.76
75658;BMP280;64255;49.892;17.884;2023-02-01T11:03:41;98159.81;;;4.69
75658;BMP280;64255;49.892;17.884;2023-02-01T11:06:33;98161.44;;;4.66
75658;BMP280;64255;49.892;17.884;2023-02-01T11:11:57;98159.50;;;4.80
75658;BMP280;64255;49.892;17.884;2023-02-01T11:16:59;98160.91;;;4.72
75658;BMP280;64255;49.892;17.884;2023-02-01T11:19:28;98160.34;;;4.77
75658;BMP280;64255;49.892;17.884;2023-02-01T11:21:59;98152.59;;;4.82
75658;BMP280;64255;49.892;17.884;2023-02-01T11:24:36;98155.38;;;4.79
75658;BMP280;64255;49.892;17.884;2023-02-01T11:27:16;98141.13;;;4.85
75658;BMP280;64255;49.892;17.884;2023-02-01T11:29:50;98141.44;;;4.88
75658;BMP280;64255;49.892;17.884;2023-02-01T11:32:21;98148.22;;;4.89
75658;BMP280;64255;49.892;17.884;2023-02-01T11:35:05;98150.44;;;4.90
75658;BMP280;64255;49.892;17.884;2023-02-01T11:37:41;98141.31;;;4.91
75658;BMP280;64255;49.892;17.884;2023-02-01T11:43:07;98139.50;;;4.88
75658;BMP280;64255;49.892;17.884;2023-02-01T11:45:35;98140.66;;;5.00
75658;BMP280;64255;49.892;17.884;2023-02-01T11:48:15;98147.38;;;4.92
75658;BMP280;64255;49.892;17.884;2023-02-01T11:50:50;98141.16;;;5.08
75658;BMP280;64255;49.892;17.884;2023-02-01T12:00:22;98122.81;;;5.00
75658;BMP280;64255;49.892;17.884;2023-02-01T12:06:47;98119.41;;;4.78
75658;BMP280;64255;49.892;17.884;2023-02-01T12:29:39;98078.72;;;4.72
75658;BMP280;64255;49.892;17.884;2023-02-01T12:39:22;98062.34;;;4.73
75658;BMP280;64255;49.892;17.884;2023-02-01T12:48:34;98053.03;;;4.68
75658;BMP280;64255;49.892;17.884;2023-02-01T12:51:16;98040.28;;;4.76
75658;BMP280;64255;49.892;17.884;2023-02-01T12:56:41;98041.91;;;4.74
75658;BMP280;64255;49.892;17.884;2023-02-01T12:59:40;98043.59;;;4.67
75658;BMP280;64255;49.892;17.884;2023-02-01T13:02:37;98030.66;;;4.69
75658;BMP280;64255;49.892;17.884;2023-02-01T13:05:21;98024.38;;;4.76
75658;BMP280;64255;49.892;17.884;2023-02-01T13:08:10;98041.53;;;4.62
75658;BMP280;64255;49.892;17.884;2023-02-01T13:10:43;98039.16;;;4.64
75658;BMP280;64255;49.892;17.884;2023-02-01T13:13:20;98042.19;;;4.53
75658;BMP280;64255;49.892;17.884;2023-02-01T13:16:16;98047.91;;;4.52
75658;BMP280;64255;49.892;17.884;2023-02-01T13:18:50;98038.97;;;4.36
75658;BMP280;64255;49.892;17.884;2023-02-01T13:21:32;98049.06;;;4.51
75658;BMP280;64255;49.892;17.884;2023-02-01T13:24:01;98036.31;;;4.23
75658;BMP280;64255;49.892;17.884;2023-02-01T13:26:27;98036.44;;;4.20
75658;BMP280;64255;49.892;17.884;2023-02-01T13:29:05;98033.25;;;4.25
75658;BMP280;64255;49.892;17.884;2023-02-01T13:34:53;98040.44;;;4.37
75658;BMP280;64255;49.892;17.884;2023-02-01T13:43:26;98044.91;;;4.63
75658;BMP280;64255;49.892;17.884;2023-02-01T13:46:06;98042.19;;;4.53
75658;BMP280;64255;49.892;17.884;2023-02-01T13:48:56;98057.44;;;4.62
75658;BMP280;64255;49.892;17.884;2023-02-01T13:51:45;98053.50;;;4.54
75658;BMP280;64255;49.892;17.884;2023-02-01T13:54:38;98063.06;;;4.51
75658;BMP280;64255;49.892;17.884;2023-02-01T13:57:37;98059.78;;;4.47
75658;BMP280;64255;49.892;17.884;2023-02-01T14:11:36;98056.13;;;4.67
75658;BMP280;64255;49.892;17.884;2023-02-01T14:19:33;98060.41;;;4.51
75658;BMP280;64255;49.892;17.884;2023-02-01T14:24:56;98051.25;;;4.43
75658;BMP280;64255;49.892;17.884;2023-02-01T14:27:34;98049.44;;;4.40
75658;BMP280;64255;49.892;17.884;2023-02-01T14:30:11;98064.00;;;4.22
75658;BMP280;64255;49.892;17.884;2023-02-01T14:32:41;98057.75;;;4.16
75658;BMP280;64255;49.892;17.884;2023-02-01T14:35:26;98054.06;;;4.14
75658;BMP280;64255;49.892;17.884;2023-02-01T14:38:00;98065.50;;;3.98
75658;BMP280;64255;49.892;17.884;2023-02-01T14:40:29;98070.03;;;4.10
75658;BMP280;64255;49.892;17.884;2023-02-01T14:42:57;98079.06;;;3.87
75658;BMP280;64255;49.892;17.884;2023-02-01T14:55:49;98083.81;;;4.18
75658;BMP280;64255;49.892;17.884;2023-02-01T14:58:46;98086.69;;;4.11
75658;BMP280;64255;49.892;17.884;2023-02-01T15:01:29;98085.41;;;4.02
75658;BMP280;64255;49.892;17.884;2023-02-01T15:04:06;98094.00;;;4.19
75658;BMP280;64255;49.892;17.884;2023-02-01T15:09:46;98099.72;;;4.05
75658;BMP280;64255;49.892;17.884;2023-02-01T15:12:25;98102.03;;;4.16
75658;BMP280;64255;49.892;17.884;2023-02-01T15:15:17;98109.47;;;3.82
75658;BMP280;64255;49.892;17.884;2023-02-01T15:17:57;98114.84;;;4.04
75658;BMP280;64255;49.892;17.884;2023-02-01T15:20:31;98116.75;;;3.65
75658;BMP280;64255;49.892;17.884;2023-02-01T15:23:14;98111.06;;;3.80
75658;BMP280;64255;49.892;17.884;2023-02-01T15:25:46;98119.75;;;4.06
75658;BMP280;64255;49.892;17.884;2023-02-01T15:28:15;98123.94;;;3.65
75658;BMP280;64255;49.892;17.884;2023-02-01T15:33:21;98119.34;;;3.95
75658;BMP280;64255;49.892;17.884;2023-02-01T15:38:31;98121.53;;;4.09
75658;BMP280;64255;49.892;17.884;2023-02-01T15:46:40;98107.56;;;3.83
75658;BMP280;64255;49.892;17.884;2023-02-01T15:49:49;98111.47;;;3.65
75658;BMP280;64255;49.892;17.884;2023-02-01T15:52:37;98110.19;;;3.83
75658;BMP280;64255;49.892;17.884;2023-02-01T15:57:47;98128.41;;;3.81
75658;BMP280;64255;49.892;17.884;2023-02-01T16:00:42;98138.78;;;3.75
75658;BMP280;64255;49.892;17.884;2023-02-01T16:03:38;98137.63;;;3.76
75658;BMP280;64255;49.892;17.884;2023-02-01T16:06:09;98150.16;;;3.76
75658;BMP280;64255;49.892;17.884;2023-02-01T16:08:48;98145.13;;;3.65
75658;BMP280;64255;49.892;17.884;2023-02-01T16:11:54;98162.00;;;3.71
75658;BMP280;64255;49.892;17.884;2023-02-01T16:14:22;98163.09;;;3.57
75658;BMP280;64255;49.892;17.884;2023-02-01T16:16:50;98170.78;;;3.68
75658;BMP280;64255;49.892;17.884;2023-02-01T16:19:18;98169.09;;;3.74
75658;BMP280;64255;49.892;17.884;2023-02-01T16:21:47;98164.75;;;3.80
75658;BMP280;64255;49.892;17.884;2023-02-01T16:24:14;98162.44;;;3.82
75658;BMP280;64255;49.892;17.884;2023-02-01T16:26:41;98162.63;;;3.75
75658;BMP280;64255;49.892;17.884;2023-02-01T16:29:08;98175.84;;;3.62
75658;BMP280;64255;49.892;17.884;2023-02-01T16:31:38;98179.28;;;3.46
75658;BMP280;64255;49.892;17.884;2023-02-01T16:34:11;98171.75;;;3.45
75658;BMP280;64255;49.892;17.884;2023-02-01T16:36:39;98180.19;;;3.10
75658;BMP280;64255;49.892;17.884;2023-02-01T16:39:11;98184.56;;;3.17
75658;BMP280;64255;49.892;17.884;2023-02-01T16:41:39;98186.44;;;3.33
75658;BMP280;64255;49.892;17.884;2023-02-01T16:44:07;98199.97;;;3.05
75658;BMP280;64255;49.892;17.884;2023-02-01T16:46:40;98185.50;;;3.10
75658;BMP280;64255;49.892;17.884;2023-02-01T16:49:24;98179.59;;;3.19
75658;BMP280;64255;49.892;17.884;2023-02-01T16:51:57;98184.84;;;2.89
75658;BMP280;64255;49.892;17.884;2023-02-01T16:54:25;98186.72;;;3.05
75658;BMP280;64255;49.892;17.884;2023-02-01T16:56:52;98191.38;;;3.47
75658;BMP280;64255;49.892;17.884;2023-02-01T16:59:19;98188.22;;;3.06
75658;BMP280;64255;49.892;17.884;2023-02-01T17:01:48;98180.03;;;3.17
75658;BMP280;64255;49.892;17.884;2023-02-01T17:04:15;98179.88;;;2.91
75658;BMP280;64255;49.892;17.884;2023-02-01T17:06:43;98187.47;;;3.06
75658;BMP280;64255;49.892;17.884;2023-02-01T17:09:10;98176.25;;;2.85
75658;BMP280;64255;49.892;17.884;2023-02-01T17:11:37;98178.88;;;2.69
75658;BMP280;64255;49.892;17.884;2023-02-01T17:14:17;98162.22;;;2.72
75658;BMP280;64255;49.892;17.884;2023-02-01T17:16:48;98153.53;;;2.71
75658;BMP280;64255;49.892;17.884;2023-02-01T17:19:20;98157.44;;;2.67
75658;BMP280;64255;49.892;17.884;2023-02-01T17:21:54;98161.88;;;2.70
75658;BMP280;64255;49.892;17.884;2023-02-01T17:24:29;98160.50;;;2.65
75658;BMP280;64255;49.892;17.884;2023-02-01T17:26:57;98152.66;;;2.61
75658;BMP280;64255;49.892;17.884;2023-02-01T17:29:24;98144.63;;;2.65
75658;BMP280;64255;49.892;17.884;2023-02-01T17:31:54;98138.59;;;2.48
75658;BMP280;64255;49.892;17.884;2023-02-01T17:34:22;98136.94;;;2.54